Time;durP1;ratioP1;P1;durP2;ratioP2;P2;SDS_P1;SDS_P2;PMS_P1;PMS_P2;Temp;Humidity;BMP_temperature;BMP_pressure;BME280_temperature;BME280_humidity;BME280_pressure;Samples;Min_cycle;Max_cycle;Signal;HPM_P1;HPM_P2
2021/06/20 00:02:01;;;;;;;17.00;6.60;;;22.40;99.90;;;;;;5017485;28;20311;-74
2021/06/20 00:04:28;;;;;;;13.40;7.13;;;22.50;99.90;;;;;;5015118;28;20254;-74
2021/06/20 00:06:56;;;;;;;15.37;7.20;;;22.50;99.90;;;;;;5015780;28;20735;-74
2021/06/20 00:09:23;;;;;;;18.67;6.87;;;22.50;99.90;;;;;;5021606;28;20211;-74
2021/06/20 00:11:50;;;;;;;21.70;6.80;;;22.50;99.90;;;;;;5015247;28;20649;-74
2021/06/20 00:14:18;;;;;;;14.37;7.67;;;22.50;99.90;;;;;;5014770;28;20235;-74
2021/06/20 00:16:46;;;;;;;15.23;7.17;;;22.30;99.90;;;;;;5012520;28;20219;-74
2021/06/20 00:19:13;;;;;;;15.53;6.77;;;22.20;99.90;;;;;;5019385;28;20772;-74
2021/06/20 00:21:40;;;;;;;16.30;6.20;;;22.40;99.90;;;;;;5015827;28;20238;-74
2021/06/20 00:24:09;;;;;;;16.43;4.57;;;22.80;99.90;;;;;;5013163;28;20303;-74
2021/06/20 00:26:36;;;;;;;20.13;4.83;;;22.80;99.90;;;;;;5017294;28;20235;-74
2021/06/20 00:29:04;;;;;;;14.30;4.03;;;22.30;99.90;;;;;;5018900;28;20303;-76
2021/06/20 00:31:31;;;;;;;13.57;4.13;;;21.80;99.90;;;;;;5015860;28;20266;-75
2021/06/20 00:33:58;;;;;;;10.47;2.87;;;21.50;99.90;;;;;;5016171;28;20306;-75
2021/06/20 00:36:25;;;;;;;9.63;2.80;;;21.20;99.90;;;;;;5017206;28;20235;-75
2021/06/20 00:38:51;;;;;;;7.13;2.60;;;20.90;99.90;;;;;;5018057;28;20626;-76
2021/06/20 00:41:20;;;;;;;6.33;2.27;;;20.80;99.90;;;;;;5015768;28;20227;-74
2021/06/20 00:43:47;;;;;;;9.87;2.43;;;20.60;99.90;;;;;;5017568;28;20212;-75
2021/06/20 00:46:13;;;;;;;10.20;2.87;;;20.50;99.90;;;;;;5017515;28;20290;-75
2021/06/20 00:48:40;;;;;;;6.30;2.50;;;20.50;99.90;;;;;;5014926;28;20247;-75
2021/06/20 00:51:07;;;;;;;10.80;2.43;;;20.30;99.90;;;;;;5015113;28;20748;-75
2021/06/20 00:53:36;;;;;;;8.73;2.67;;;20.30;99.90;;;;;;5017467;28;20235;-75
2021/06/20 00:56:03;;;;;;;11.50;2.67;;;20.30;99.90;;;;;;5014845;28;20323;-76
2021/06/20 00:58:32;;;;;;;8.60;2.40;;;20.30;99.90;;;;;;5013958;28;20306;-75
2021/06/20 01:00:59;;;;;;;9.60;2.30;;;20.30;99.90;;;;;;5015194;28;20310;-76
2021/06/20 01:03:25;;;;;;;4.43;2.17;;;20.30;99.90;;;;;;5014108;28;20246;-75
2021/06/20 01:05:52;;;;;;;6.40;2.17;;;20.40;99.90;;;;;;5014607;28;20243;-76
2021/06/20 01:08:19;;;;;;;5.80;2.17;;;20.40;99.90;;;;;;5015454;28;20755;-75
2021/06/20 01:10:47;;;;;;;6.00;2.30;;;20.30;99.90;;;;;;5015571;28;20350;-75
2021/06/20 01:13:17;;;;;;;11.57;2.63;;;20.30;99.90;;;;;;5012477;28;20282;-75
2021/06/20 01:15:48;;;;;;;6.33;2.23;;;20.30;99.90;;;;;;5012224;28;20715;-75
2021/06/20 01:18:15;;;;;;;6.57;2.17;;;20.20;99.90;;;;;;5015249;28;20204;-76
2021/06/20 01:20:43;;;;;;;12.87;2.67;;;20.20;99.90;;;;;;5014371;28;20208;-75
2021/06/20 01:23:11;;;;;;;5.87;2.50;;;20.20;99.90;;;;;;5016726;28;20203;-75
2021/06/20 01:25:40;;;;;;;9.77;2.80;;;20.20;99.90;;;;;;5011283;28;20299;-75
2021/06/20 01:28:10;;;;;;;5.00;2.50;;;20.20;99.90;;;;;;5014234;28;20757;-76
2021/06/20 01:30:39;;;;;;;8.33;2.50;;;20.20;99.90;;;;;;5013275;28;20238;-75
2021/06/20 01:33:08;;;;;;;8.10;2.50;;;20.20;99.90;;;;;;5014786;28;20216;-76
2021/06/20 01:35:35;;;;;;;10.03;2.93;;;20.20;99.90;;;;;;5013128;28;20518;-75
2021/06/20 01:38:04;;;;;;;11.93;3.07;;;20.20;99.90;;;;;;5018408;28;20294;-75
2021/06/20 01:40:33;;;;;;;7.30;2.80;;;20.20;99.90;;;;;;5014512;28;20232;-75
2021/06/20 01:43:00;;;;;;;10.23;2.97;;;20.20;99.90;;;;;;5013191;28;20287;-75
2021/06/20 01:45:28;;;;;;;8.90;2.80;;;20.20;99.90;;;;;;5018333;28;20756;-75
2021/06/20 01:47:58;;;;;;;7.93;3.10;;;20.10;99.90;;;;;;5012502;28;20201;-75
2021/06/20 01:50:26;;;;;;;12.80;2.90;;;20.20;99.90;;;;;;5013751;28;20233;-75
2021/06/20 01:53:04;;;;;;;14.40;3.20;;;20.30;99.90;;;;;;5011946;28;20291;-75
2021/06/20 01:55:33;;;;;;;11.57;3.30;;;20.60;99.90;;;;;;5012707;28;20212;-76
2021/06/20 01:58:00;;;;;;;9.47;3.13;;;20.50;99.90;;;;;;5016860;28;20226;-75
2021/06/20 02:00:28;;;;;;;16.00;3.50;;;20.40;99.90;;;;;;5014931;28;20211;-75
2021/06/20 02:02:55;;;;;;;12.37;3.47;;;20.20;99.90;;;;;;5013860;28;20232;-76
2021/06/20 02:05:25;;;;;;;10.73;3.37;;;20.20;99.90;;;;;;5010669;28;20316;-74
2021/06/20 02:07:52;;;;;;;10.97;3.50;;;20.20;99.90;;;;;;5015004;28;20294;-75
2021/06/20 02:10:19;;;;;;;9.70;2.97;;;20.20;99.90;;;;;;5011660;28;20232;-75
2021/06/20 02:12:47;;;;;;;13.83;4.33;;;20.10;99.90;;;;;;5015369;28;20215;-75
2021/06/20 02:15:16;;;;;;;12.73;3.80;;;20.00;99.90;;;;;;5016829;28;20295;-75
2021/06/20 02:17:43;;;;;;;14.03;3.93;;;20.00;99.90;;;;;;5015863;28;20219;-76
2021/06/20 02:20:14;;;;;;;15.67;3.97;;;20.00;99.90;;;;;;5017659;28;20825;-75
2021/06/20 02:22:42;;;;;;;11.80;3.70;;;20.00;99.90;;;;;;5020316;28;20278;-75
2021/06/20 02:25:11;;;;;;;15.20;3.80;;;20.00;99.90;;;;;;5019476;28;20291;-76
2021/06/20 02:27:38;;;;;;;12.73;3.60;;;20.00;99.90;;;;;;5022408;28;20282;-76
2021/06/20 02:30:09;;;;;;;15.60;3.80;;;19.90;99.90;;;;;;5022122;28;20279;-74
2021/06/20 02:32:37;;;;;;;11.33;3.63;;;19.80;99.90;;;;;;5021270;28;20331;-74
2021/06/20 02:35:05;;;;;;;12.30;3.90;;;19.80;99.90;;;;;;5020979;28;20236;-74
2021/06/20 02:37:33;;;;;;;13.03;4.37;;;19.70;99.90;;;;;;5018648;28;20234;-73
2021/06/20 02:40:00;;;;;;;13.67;3.97;;;19.60;99.90;;;;;;5019075;28;20297;-74
2021/06/20 02:42:27;;;;;;;11.63;4.03;;;19.60;99.90;;;;;;5016500;28;20252;-74
2021/06/20 02:44:54;;;;;;;17.80;4.67;;;19.60;99.90;;;;;;5017994;28;20316;-74
2021/06/20 02:47:22;;;;;;;13.83;4.50;;;19.60;99.90;;;;;;5017105;28;20236;-74
2021/06/20 02:49:49;;;;;;;16.03;4.33;;;19.60;99.90;;;;;;5018777;28;20246;-74
2021/06/20 02:52:17;;;;;;;13.97;4.00;;;19.50;99.90;;;;;;5020531;28;20315;-74
2021/06/20 02:54:51;;;;;;;20.43;4.70;;;19.50;99.90;;;;;;5017570;28;20294;-74
2021/06/20 02:57:19;;;;;;;18.27;5.23;;;19.50;99.90;;;;;;5017409;28;20235;-74
2021/06/20 02:59:47;;;;;;;16.67;4.60;;;19.50;99.90;;;;;;5016156;28;20312;-74
2021/06/20 03:02:14;;;;;;;15.67;4.70;;;19.60;99.90;;;;;;5018877;28;20222;-74
2021/06/20 03:04:42;;;;;;;16.67;4.93;;;19.60;99.90;;;;;;5014440;28;20212;-74
2021/06/20 03:07:10;;;;;;;18.67;4.47;;;19.60;99.90;;;;;;5018556;28;20258;-74
2021/06/20 03:09:37;;;;;;;15.03;4.60;;;19.50;99.90;;;;;;5018679;28;20292;-74
2021/06/20 03:12:06;;;;;;;13.27;4.80;;;19.50;99.90;;;;;;5017363;28;20221;-74
2021/06/20 03:14:34;;;;;;;13.53;4.70;;;19.50;99.90;;;;;;5017200;28;20247;-74
2021/06/20 03:17:02;;;;;;;17.70;5.00;;;19.50;99.90;;;;;;5017360;28;20266;-74
2021/06/20 03:19:29;;;;;;;11.00;4.10;;;19.50;99.90;;;;;;5019352;28;20311;-74
2021/06/20 03:22:00;;;;;;;11.07;4.23;;;19.50;99.90;;;;;;5016680;28;20311;-74
2021/06/20 03:24:27;;;;;;;16.03;4.80;;;19.50;99.90;;;;;;5016807;28;20683;-74
2021/06/20 03:26:54;;;;;;;15.83;4.70;;;19.50;99.90;;;;;;5020047;28;20206;-75
2021/06/20 03:29:21;;;;;;;10.73;4.60;;;19.50;99.90;;;;;;5016965;28;20299;-74
2021/06/20 03:31:48;;;;;;;13.37;4.67;;;19.50;99.90;;;;;;5019297;28;20234;-75
2021/06/20 03:34:15;;;;;;;20.43;4.40;;;19.50;99.90;;;;;;5017922;28;20195;-75
2021/06/20 03:36:42;;;;;;;12.87;4.37;;;19.40;99.90;;;;;;5017748;28;20283;-74
2021/06/20 03:39:10;;;;;;;11.57;4.50;;;19.40;99.90;;;;;;5016374;28;21806;-74
2021/06/20 03:41:38;;;;;;;12.33;4.40;;;19.40;99.90;;;;;;5018277;28;20248;-75
2021/06/20 03:44:06;;;;;;;11.70;4.20;;;19.40;99.90;;;;;;5018714;28;20214;-75
2021/06/20 03:46:33;;;;;;;12.70;4.63;;;19.40;99.90;;;;;;5018564;28;20299;-76
2021/06/20 03:49:00;;;;;;;16.97;4.93;;;19.40;99.90;;;;;;5016407;28;20228;-75
2021/06/20 03:51:27;;;;;;;10.77;4.07;;;19.40;99.90;;;;;;5018625;28;20678;-76
2021/06/20 03:53:54;;;;;;;14.80;4.60;;;19.40;99.90;;;;;;5016206;28;20307;-76
2021/06/20 03:56:22;;;;;;;19.03;5.07;;;19.40;99.90;;;;;;5014744;28;20203;-76
2021/06/20 03:58:49;;;;;;;12.93;4.10;;;19.50;99.90;;;;;;5014802;28;20290;-76
2021/06/20 04:01:16;;;;;;;36.63;5.00;;;19.50;99.90;;;;;;5015475;28;20910;-75
2021/06/20 04:03:43;;;;;;;19.40;5.00;;;19.60;99.90;;;;;;5017160;28;20291;-77
2021/06/20 04:06:10;;;;;;;11.80;4.70;;;19.50;99.90;;;;;;5018214;28;20294;-75
2021/06/20 04:08:37;;;;;;;17.23;4.97;;;19.50;99.90;;;;;;5015718;28;20212;-76
2021/06/20 04:11:04;;;;;;;11.70;4.73;;;19.60;99.90;;;;;;5017050;28;20264;-76
2021/06/20 04:13:32;;;;;;;15.83;4.90;;;19.50;99.90;;;;;;5014125;28;20287;-75
2021/06/20 04:15:59;;;;;;;15.17;4.87;;;19.60;99.90;;;;;;5015532;28;20216;-75
2021/06/20 04:18:26;;;;;;;13.73;5.23;;;19.50;99.90;;;;;;5019349;28;20303;-76
2021/06/20 04:20:53;;;;;;;15.10;4.73;;;19.60;99.90;;;;;;5013714;28;20243;-76
2021/06/20 04:23:19;;;;;;;14.47;4.77;;;20.00;99.90;;;;;;5017284;28;20254;-75
2021/06/20 04:25:46;;;;;;;13.23;4.50;;;20.30;99.90;;;;;;5016099;28;20214;-76
2021/06/20 04:28:16;;;;;;;20.70;4.13;;;20.80;99.90;;;;;;5014448;28;20625;-76
2021/06/20 04:30:44;;;;;;;17.33;5.23;;;21.40;99.90;;;;;;5013876;28;20773;-76
2021/06/20 04:33:11;;;;;;;14.90;4.50;;;22.00;99.90;;;;;;5014198;28;20200;-75
2021/06/20 04:35:39;;;;;;;13.80;3.60;;;22.70;99.90;;;;;;5012691;28;20650;-76
2021/06/20 04:38:06;;;;;;;18.20;4.50;;;22.80;99.90;;;;;;5015003;28;20286;-76
2021/06/20 04:40:34;;;;;;;11.10;4.17;;;23.30;99.90;;;;;;5016371;28;20651;-76
2021/06/20 04:43:07;;;;;;;13.83;4.07;;;23.70;99.90;;;;;;5017170;28;20620;-76
2021/06/20 04:45:34;;;;;;;10.30;4.03;;;24.10;99.90;;;;;;5011648;28;20677;-77
2021/06/20 04:48:03;;;;;;;14.47;4.20;;;23.60;99.90;;;;;;5012334;28;20282;-75
2021/06/20 04:50:30;;;;;;;16.77;4.40;;;23.30;99.90;;;;;;5014300;28;20205;-77
2021/06/20 04:52:57;;;;;;;13.93;4.20;;;22.80;99.90;;;;;;5015810;28;20316;-76
2021/06/20 04:55:24;;;;;;;9.23;3.60;;;22.80;99.90;;;;;;5020119;28;20296;-75
2021/06/20 04:57:51;;;;;;;15.50;3.67;;;22.80;99.90;;;;;;5014246;28;20291;-76
2021/06/20 05:00:19;;;;;;;8.40;3.30;;;22.60;99.90;;;;;;5012888;28;20480;-76
2021/06/20 05:02:46;;;;;;;13.33;4.03;;;22.50;99.90;;;;;;5013505;28;20744;-76
2021/06/20 05:05:15;;;;;;;11.03;3.23;;;22.20;99.90;;;;;;5015070;28;20327;-76
2021/06/20 05:07:41;;;;;;;12.50;4.07;;;21.90;99.90;;;;;;5016150;28;20235;-76
2021/06/20 05:10:10;;;;;;;12.73;4.10;;;21.70;99.90;;;;;;5019959;28;20212;-75
2021/06/20 05:12:37;;;;;;;15.13;4.93;;;21.40;99.90;;;;;;5015547;28;20318;-77
2021/06/20 05:15:06;;;;;;;13.07;4.57;;;21.20;99.90;;;;;;5014148;28;20294;-76
2021/06/20 05:17:33;;;;;;;11.43;3.70;;;20.90;99.90;;;;;;5016197;28;20222;-77
2021/06/20 05:20:00;;;;;;;11.47;3.63;;;20.90;99.90;;;;;;5011798;28;20199;-74
2021/06/20 05:22:29;;;;;;;11.43;4.60;;;21.10;99.90;;;;;;5011595;28;20635;-74
2021/06/20 05:24:56;;;;;;;12.10;4.20;;;21.40;99.90;;;;;;5015652;28;20236;-74
2021/06/20 05:27:23;;;;;;;15.40;3.70;;;23.10;99.90;;;;;;5016359;28;20310;-75
2021/06/20 05:29:49;;;;;;;9.03;3.77;;;24.20;99.90;;;;;;5014887;28;20641;-73
2021/06/20 05:32:16;;;;;;;11.27;3.50;;;24.90;99.90;;;;;;5014368;28;20274;-72
2021/06/20 05:34:43;;;;;;;13.87;3.27;;;25.60;99.90;;;;;;5014506;28;20236;-73
2021/06/20 05:37:10;;;;;;;9.10;3.10;;;26.80;99.90;;;;;;5015548;28;20292;-74
2021/06/20 05:39:39;;;;;;;7.93;3.37;;;27.40;99.90;;;;;;5012574;28;20667;-74
2021/06/20 05:42:06;;;;;;;8.63;3.17;;;26.50;99.90;;;;;;5013874;28;20434;-74
2021/06/20 05:44:33;;;;;;;8.93;3.17;;;25.50;99.90;;;;;;5009813;28;20730;-73
2021/06/20 05:47:01;;;;;;;10.03;3.40;;;25.10;99.90;;;;;;5014311;28;20291;-73
2021/06/20 05:49:28;;;;;;;11.50;3.30;;;24.90;99.90;;;;;;5014160;28;20299;-73
2021/06/20 05:51:55;;;;;;;12.37;2.97;;;25.10;99.90;;;;;;5012438;28;20220;-73
2021/06/20 05:54:22;;;;;;;8.20;2.67;;;25.30;99.90;;;;;;5016875;28;20203;-75
2021/06/20 05:56:50;;;;;;;10.97;2.90;;;25.20;99.90;;;;;;5016533;28;20287;-73
2021/06/20 05:59:17;;;;;;;7.73;2.90;;;24.70;99.90;;;;;;5020818;28;20227;-72
2021/06/20 06:01:44;;;;;;;11.97;2.63;;;25.10;99.90;;;;;;5024381;28;20307;-74
2021/06/20 06:04:11;;;;;;;8.33;2.43;;;26.80;99.90;;;;;;5020615;28;20605;-73
2021/06/20 06:06:38;;;;;;;7.27;2.57;;;28.30;99.90;;;;;;5019406;28;20330;-73
2021/06/20 06:09:06;;;;;;;8.13;2.37;;;28.50;99.90;;;;;;5016399;28;20306;-73
2021/06/20 06:11:32;;;;;;;11.97;2.70;;;28.40;99.90;;;;;;5015206;28;20588;-74
2021/06/20 06:14:01;;;;;;;9.33;2.30;;;28.80;99.90;;;;;;5016618;28;20751;-74
2021/06/20 06:16:28;;;;;;;7.43;2.50;;;29.70;99.90;;;;;;5019085;28;20678;-74
2021/06/20 06:18:55;;;;;;;7.83;2.00;;;30.50;99.90;;;;;;5018249;28;20830;-74
2021/06/20 06:21:22;;;;;;;4.65;1.50;;;31.20;99.90;;;;;;5016824;28;20327;-73
2021/06/20 06:23:48;;;;;;;4.63;1.60;;;31.10;99.90;;;;;;5018566;28;20234;-75
2021/06/20 06:26:15;;;;;;;5.30;1.40;;;31.30;99.90;;;;;;5019329;28;20196;-73
2021/06/20 06:28:42;;;;;;;4.28;1.40;;;31.00;99.90;;;;;;5021353;28;20287;-74
2021/06/20 06:31:10;;;;;;;5.63;1.50;;;30.70;99.90;;;;;;5014971;28;20307;-74
2021/06/20 06:33:37;;;;;;;4.23;1.50;;;30.30;99.90;;;;;;5016097;28;20224;-74
2021/06/20 06:36:04;;;;;;;4.03;1.37;;;30.20;99.90;;;;;;5018262;28;20287;-74
2021/06/20 06:38:32;;;;;;;4.93;1.42;;;30.60;99.90;;;;;;5018940;28;20291;-74
2021/06/20 06:40:59;;;;;;;4.57;1.40;;;31.10;99.90;;;;;;5017345;28;20228;-74
2021/06/20 06:43:25;;;;;;;3.45;1.52;;;31.20;99.90;;;;;;5015270;28;20200;-74
2021/06/20 06:45:52;;;;;;;3.22;1.50;;;30.80;99.90;;;;;;5014226;28;20301;-74
2021/06/20 06:48:21;;;;;;;5.07;1.48;;;31.20;99.90;;;;;;5018478;28;20684;-74
2021/06/20 06:50:47;;;;;;;4.35;1.33;;;32.10;99.90;;;;;;5018963;28;20328;-74
2021/06/20 06:53:14;;;;;;;3.47;1.70;;;31.90;99.90;;;;;;5017278;28;20220;-74
2021/06/20 06:55:41;;;;;;;6.35;1.45;;;32.00;99.90;;;;;;5016757;28;20674;-74
2021/06/20 06:58:08;;;;;;;6.50;1.70;;;32.10;99.90;;;;;;5015262;28;20759;-74
2021/06/20 07:00:35;;;;;;;4.22;1.52;;;32.10;99.90;;;;;;5016853;28;20240;-74
2021/06/20 07:03:02;;;;;;;4.10;1.70;;;32.00;99.90;;;;;;5024724;28;20282;-74
2021/06/20 07:05:31;;;;;;;6.18;1.45;;;31.90;99.90;;;;;;5021135;28;20274;-75
2021/06/20 07:07:58;;;;;;;3.38;1.48;;;31.70;99.90;;;;;;5017407;28;20258;-75
2021/06/20 07:10:25;;;;;;;3.63;1.52;;;31.50;99.90;;;;;;5013645;28;20239;-73
2021/06/20 07:12:52;;;;;;;3.85;1.20;;;31.70;99.90;;;;;;5018999;28;20318;-75
2021/06/20 07:17:55;;;;;;;4.60;1.40;;;33.10;99.90;;;;;;5068808;22;20232;-75
2021/06/20 07:20:22;;;;;;;3.22;1.33;;;33.00;99.90;;;;;;5035296;28;20205;-75
2021/06/20 07:22:51;;;;;;;3.88;1.42;;;32.80;99.90;;;;;;5034189;28;20331;-75
2021/06/20 07:25:20;;;;;;;5.22;1.30;;;32.50;99.90;;;;;;5035738;28;20406;-75
2021/06/20 07:27:48;;;;;;;5.10;1.23;;;32.30;99.90;;;;;;5034830;28;20731;-75
2021/06/20 07:30:17;;;;;;;3.53;1.40;;;32.30;99.90;;;;;;5035565;28;20297;-75
2021/06/20 07:32:44;;;;;;;5.38;1.70;;;31.30;99.90;;;;;;5036343;28;20309;-75
2021/06/20 07:35:12;;;;;;;3.28;1.40;;;31.50;99.90;;;;;;5035455;28;20292;-75
2021/06/20 07:37:39;;;;;;;6.68;1.60;;;31.60;99.90;;;;;;5039860;28;20232;-75
2021/06/20 07:40:11;;;;;;;3.75;1.38;;;31.30;99.90;;;;;;5035630;28;20302;-75
2021/06/20 07:42:38;;;;;;;4.07;1.10;;;31.50;99.90;;;;;;5037035;28;20274;-75
2021/06/20 07:45:07;;;;;;;5.22;1.63;;;31.50;99.90;;;;;;5035110;28;20207;-75
2021/06/20 07:47:34;;;;;;;2.05;1.48;;;32.10;99.90;;;;;;5040800;28;20226;-73
2021/06/20 07:50:01;;;;;;;3.53;1.60;;;32.20;99.90;;;;;;5036270;28;20569;-74
2021/06/20 07:52:28;;;;;;;2.42;1.20;;;32.20;99.90;;;;;;5036348;28;20224;-74
2021/06/20 07:54:55;;;;;;;4.63;1.55;;;32.70;99.90;;;;;;5038035;28;20200;-74
2021/06/20 07:57:24;;;;;;;3.88;1.48;;;;;;;;;;5041410;28;20682;-74
2021/06/20 07:59:51;;;;;;;5.15;1.65;;;;;;;;;;5037041;28;20213;-75
2021/06/20 08:02:18;;;;;;;4.13;1.30;;;;;;;;;;5036212;28;20247;-74
2021/06/20 08:04:46;;;;;;;3.33;1.20;;;;;;;;;;5036297;28;20203;-72
2021/06/20 08:07:13;;;;;;;2.13;1.15;;;;;;;;;;5035510;28;20226;-73
2021/06/20 08:09:40;;;;;;;2.03;1.17;;;33.20;99.90;;;;;;5035152;28;20286;-71
2021/06/20 08:12:08;;;;;;;5.93;1.50;;;;;;;;;;5040710;28;20289;-72
2021/06/20 08:14:37;;;;;;;3.50;1.20;;;;;;;;;;5038023;28;20207;-73
2021/06/20 08:17:05;;;;;;;2.72;1.17;;;;;;;;;;5037395;28;20289;-71
2021/06/20 08:19:32;;;;;;;4.78;1.30;;;;;;;;;;5038409;28;20199;-72
2021/06/20 08:21:59;;;;;;;5.57;1.58;;;34.20;99.90;;;;;;5031710;28;20233;-72
2021/06/20 08:24:26;;;;;;;4.18;1.50;;;34.50;99.90;;;;;;5036315;28;20214;-73
2021/06/20 08:26:52;;;;;;;3.03;1.27;;;34.80;99.90;;;;;;5037353;28;20257;-72
2021/06/20 08:29:20;;;;;;;3.50;1.30;;;35.30;99.90;;;;;;5034582;28;20208;-73
2021/06/20 08:31:48;;;;;;;3.97;1.40;;;35.50;99.90;;;;;;5033715;28;20296;-71
2021/06/20 08:34:15;;;;;;;4.93;1.48;;;34.00;99.90;;;;;;5038780;28;20227;-73
2021/06/20 08:36:42;;;;;;;3.45;1.25;;;33.70;99.90;;;;;;5035505;28;20658;-74
2021/06/20 08:39:09;;;;;;;3.45;1.40;;;33.20;99.90;;;;;;5031032;28;20211;-73
2021/06/20 08:41:40;;;;;;;3.90;1.58;;;33.70;99.90;;;;;;5028063;28;20265;-74
2021/06/20 08:44:15;;;;;;;5.22;1.67;;;34.70;99.90;;;;;;5028656;28;20215;-73
2021/06/20 08:46:42;;;;;;;3.28;1.38;;;34.70;99.90;;;;;;5029202;28;20583;-73
2021/06/20 08:49:12;;;;;;;4.28;1.55;;;34.00;99.90;;;;;;5030183;28;20296;-72
2021/06/20 08:51:39;;;;;;;2.70;1.27;;;32.40;99.90;;;;;;5028772;28;20229;-73
2021/06/20 08:54:06;;;;;;;3.90;1.20;;;32.00;99.90;;;;;;5025856;28;20792;-74
2021/06/20 08:56:34;;;;;;;3.95;1.60;;;31.80;99.90;;;;;;5030038;28;20211;-76
2021/06/20 08:59:04;;;;;;;4.78;1.67;;;31.20;99.90;;;;;;5036880;28;20238;-75
2021/06/20 09:01:32;;;;;;;3.13;1.60;;;31.80;99.90;;;;;;5037330;28;20585;-73
2021/06/20 09:03:59;;;;;;;4.80;1.70;;;31.90;99.90;;;;;;5036050;28;20215;-75
2021/06/20 09:06:28;;;;;;;4.57;1.47;;;30.60;99.90;;;;;;5033190;28;20302;-74
2021/06/20 09:08:56;;;;;;;2.10;1.40;;;29.90;99.90;;;;;;5037143;28;20223;-75
2021/06/20 09:11:25;;;;;;;3.73;1.40;;;29.90;99.90;;;;;;5032914;28;20315;-76
2021/06/20 09:14:01;;;;;;;2.63;1.40;;;30.60;99.90;;;;;;5031776;28;20318;-74
2021/06/20 09:16:28;;;;;;;2.57;1.53;;;31.00;99.90;;;;;;5029382;28;20311;-73
2021/06/20 09:18:55;;;;;;;2.87;1.50;;;30.40;99.90;;;;;;5035501;28;20213;-74
2021/06/20 09:21:24;;;;;;;4.30;1.70;;;29.70;99.90;;;;;;5034876;28;20314;-72
2021/06/20 09:23:53;;;;;;;2.10;1.30;;;29.30;99.90;;;;;;5035835;28;20218;-73
2021/06/20 09:26:33;;;;;;;5.60;1.83;;;29.20;99.90;;;;;;5039510;28;20277;-73
2021/06/20 09:29:00;;;;;;;3.17;1.40;;;29.10;99.90;;;;;;5034599;28;20587;-74
2021/06/20 09:31:42;;;;;;;4.90;1.43;;;29.00;99.90;;;;;;5038450;28;20228;-73
2021/06/20 09:34:09;;;;;;;4.10;1.70;;;29.10;99.90;;;;;;5034563;28;20449;-74
2021/06/20 09:36:36;;;;;;;5.73;1.60;;;29.10;99.90;;;;;;5027371;28;20217;-75
2021/06/20 09:39:17;;;;;;;3.00;1.73;;;28.80;99.90;;;;;;5027673;28;20217;-75
2021/06/20 09:41:45;;;;;;;6.87;1.80;;;28.60;99.90;;;;;;5031085;28;20821;-74
2021/06/20 09:44:11;;;;;;;3.50;1.47;;;28.40;99.90;;;;;;5026809;28;20226;-76
2021/06/20 09:46:38;;;;;;;4.13;1.80;;;28.40;99.90;;;;;;5024661;28;20870;-76
2021/06/20 09:49:05;;;;;;;4.23;1.40;;;28.30;99.90;;;;;;5027475;28;20216;-75
2021/06/20 09:51:32;;;;;;;3.17;1.70;;;28.40;99.90;;;;;;5019851;28;20392;-76
2021/06/20 09:53:59;;;;;;;6.70;1.50;;;28.20;99.90;;;;;;5029284;28;20329;-77
2021/06/20 09:56:29;;;;;;;2.30;1.47;;;28.00;99.90;;;;;;5028133;28;20711;-75
2021/06/20 09:58:58;;;;;;;8.17;1.73;;;28.30;99.90;;;;;;5030425;28;20277;-75
2021/06/20 10:01:26;;;;;;;3.07;1.50;;;28.40;99.90;;;;;;5033704;28;20286;-74
2021/06/20 10:03:53;;;;;;;2.63;1.50;;;28.30;99.90;;;;;;5029077;28;20200;-75
2021/06/20 10:06:21;;;;;;;5.73;1.80;;;28.10;99.90;;;;;;5036239;28;20673;-79
2021/06/20 10:08:48;;;;;;;3.03;1.70;;;28.00;99.90;;;;;;5038025;28;20195;-75
2021/06/20 10:11:16;;;;;;;8.93;1.60;;;28.30;99.90;;;;;;5041117;28;20343;-78
2021/06/20 10:13:45;;;;;;;2.53;1.57;;;28.20;99.90;;;;;;5033323;28;20318;-75
2021/06/20 10:16:17;;;;;;;4.33;1.70;;;28.30;99.90;;;;;;5035806;28;20289;-74
2021/06/20 10:18:49;;;;;;;3.40;1.57;;;28.00;99.90;;;;;;5029940;28;20200;-74
2021/06/20 10:21:27;;;;;;;3.80;1.80;;;28.20;99.90;;;;;;5032331;28;20322;-75
2021/06/20 10:24:06;;;;;;;7.13;1.90;;;28.50;99.90;;;;;;5040130;28;20321;-75
2021/06/20 10:26:34;;;;;;;5.87;1.73;;;28.60;99.90;;;;;;5034057;28;20321;-81
2021/06/20 10:29:03;;;;;;;2.27;1.37;;;28.60;99.90;;;;;;5033132;28;20290;-75
2021/06/20 10:31:34;;;;;;;7.90;1.80;;;28.20;99.90;;;;;;5040297;28;20571;-73
2021/06/20 10:34:16;;;;;;;7.30;1.70;;;27.70;99.90;;;;;;5033009;28;20259;-73
2021/06/20 10:36:47;;;;;;;3.50;1.60;;;27.50;99.90;;;;;;5033252;28;20798;-73
2021/06/20 10:39:15;;;;;;;5.37;1.60;;;27.60;99.90;;;;;;5032240;28;20306;-76
2021/06/20 10:41:42;;;;;;;3.40;1.83;;;28.00;99.90;;;;;;5034009;28;20725;-73
2021/06/20 10:44:10;;;;;;;3.10;1.43;;;28.10;99.90;;;;;;5040568;28;20767;-73
2021/06/20 10:46:39;;;;;;;2.43;1.63;;;28.20;99.90;;;;;;5034549;28;20295;-72
2021/06/20 10:49:17;;;;;;;3.70;1.47;;;28.20;99.90;;;;;;5034153;28;20206;-73
2021/06/20 10:51:45;;;;;;;3.17;1.40;;;28.60;99.90;;;;;;5033550;28;20313;-73
2021/06/20 10:54:28;;;;;;;4.50;1.70;;;28.80;99.90;;;;;;5030187;28;20345;-75
2021/06/20 10:56:59;;;;;;;2.23;1.47;;;29.00;99.90;;;;;;5029933;28;20234;-74
2021/06/20 10:59:28;;;;;;;3.73;1.57;;;28.80;99.90;;;;;;5037764;28;20659;-74
2021/06/20 11:01:55;;;;;;;4.07;1.40;;;28.80;99.90;;;;;;5034463;28;20648;-73
2021/06/20 11:04:22;;;;;;;4.07;1.17;;;28.60;99.90;;;;;;5035162;28;20639;-73
2021/06/20 11:06:53;;;;;;;4.27;1.40;;;28.60;99.90;;;;;;5035641;28;20752;-73
2021/06/20 11:09:22;;;;;;;2.67;1.40;;;28.70;99.90;;;;;;5035582;28;20555;-73
2021/06/20 11:11:54;;;;;;;4.87;1.70;;;28.70;99.90;;;;;;5034986;28;20240;-75
2021/06/20 11:14:21;;;;;;;3.27;1.40;;;28.60;99.90;;;;;;5037868;28;20259;-74
2021/06/20 11:16:51;;;;;;;1.93;1.53;;;28.60;99.90;;;;;;5037162;28;20299;-74
2021/06/20 11:19:21;;;;;;;2.23;1.33;;;28.50;99.90;;;;;;5033968;28;20303;-74
2021/06/20 11:21:52;;;;;;;4.53;1.40;;;28.80;99.90;;;;;;5039658;28;20229;-74
2021/06/20 11:24:22;;;;;;;1.67;1.27;;;28.80;99.90;;;;;;5038227;28;20228;-74
2021/06/20 11:26:57;;;;;;;2.87;1.20;;;28.90;99.90;;;;;;5035836;28;20278;-74
2021/06/20 11:29:24;;;;;;;2.70;1.30;;;29.10;99.90;;;;;;5037197;28;20628;-75
2021/06/20 11:31:55;;;;;;;3.83;1.40;;;29.40;99.90;;;;;;5036025;28;20307;-73
2021/06/20 11:34:22;;;;;;;2.77;1.20;;;29.00;99.90;;;;;;5036543;28;20229;-74
2021/06/20 11:36:49;;;;;;;2.40;1.10;;;29.10;99.90;;;;;;5035775;28;20736;-73
2021/06/20 11:39:17;;;;;;;4.13;1.17;;;28.70;99.90;;;;;;5039768;28;20571;-73
2021/06/20 11:41:45;;;;;;;1.40;1.10;;;28.40;99.90;;;;;;5034112;28;20941;-74
2021/06/20 11:44:14;;;;;;;2.47;1.20;;;28.50;99.90;;;;;;5033833;28;20284;-74
2021/06/20 11:46:43;;;;;;;2.47;1.50;;;28.60;99.90;;;;;;5037439;28;20243;-74
2021/06/20 11:49:13;;;;;;;1.63;1.17;;;28.80;99.90;;;;;;5036953;28;20216;-74
2021/06/20 11:51:42;;;;;;;1.60;1.20;;;28.80;99.90;;;;;;5036389;28;20563;-74
2021/06/20 11:54:15;;;;;;;3.27;1.20;;;28.90;99.90;;;;;;5034257;28;20251;-73
2021/06/20 11:56:44;;;;;;;3.07;1.10;;;29.10;99.90;;;;;;5034190;28;20245;-74
2021/06/20 11:59:12;;;;;;;2.77;1.30;;;29.10;99.90;;;;;;5037975;28;20322;-74
2021/06/20 12:01:46;;;;;;;3.03;1.10;;;29.10;99.90;;;;;;5038909;28;20317;-74
2021/06/20 12:04:19;;;;;;;6.80;1.40;;;29.10;99.90;;;;;;5038507;28;20200;-75
2021/06/20 12:06:47;;;;;;;1.60;1.20;;;28.70;99.90;;;;;;5035678;28;20211;-73
2021/06/20 12:09:15;;;;;;;2.33;1.10;;;28.20;99.90;;;;;;5034873;28;20262;-75
2021/06/20 12:11:43;;;;;;;4.20;1.30;;;28.10;99.90;;;;;;5037299;28;20227;-74
2021/06/20 12:14:22;;;;;;;2.57;1.10;;;28.10;99.90;;;;;;5036009;28;20322;-74
2021/06/20 12:16:50;;;;;;;1.83;1.20;;;28.40;99.90;;;;;;5034374;28;20640;-74
2021/06/20 12:19:19;;;;;;;2.63;1.47;;;28.80;99.90;;;;;;5035762;28;20428;-73
2021/06/20 12:21:49;;;;;;;5.70;1.37;;;28.90;99.90;;;;;;5038324;28;20668;-74
2021/06/20 12:24:16;;;;;;;2.87;1.20;;;28.80;99.90;;;;;;5034958;28;20731;-73
2021/06/20 12:26:52;;;;;;;1.50;1.03;;;28.70;99.90;;;;;;5034853;28;20615;-75
2021/06/20 12:29:19;;;;;;;3.03;1.40;;;28.60;99.90;;;;;;5034333;28;20203;-74
2021/06/20 12:31:58;;;;;;;4.57;1.60;;;28.60;99.90;;;;;;5032910;28;20662;-74
2021/06/20 12:34:26;;;;;;;2.17;1.10;;;28.50;99.90;;;;;;5034394;28;20310;-73
2021/06/20 12:37:01;;;;;;;2.50;1.10;;;28.70;99.90;;;;;;5037441;28;21403;-74
2021/06/20 12:39:39;;;;;;;4.73;1.20;;;28.80;99.90;;;;;;5030834;28;20206;-74
2021/06/20 12:42:06;;;;;;;4.67;1.20;;;28.80;99.90;;;;;;5035153;28;20227;-75
2021/06/20 12:44:45;;;;;;;2.00;1.20;;;28.90;99.90;;;;;;5033823;28;20291;-74
2021/06/20 12:47:13;;;;;;;1.20;1.10;;;29.00;99.90;;;;;;5038194;28;20204;-74
2021/06/20 12:49:44;;;;;;;2.50;1.30;;;28.90;99.90;;;;;;5034110;28;20298;-73
2021/06/20 12:52:11;;;;;;;1.57;0.93;;;28.70;99.90;;;;;;5033844;28;20310;-74
2021/06/20 12:54:53;;;;;;;2.03;1.00;;;28.50;99.90;;;;;;5032485;28;20314;-74